createdAt,value
2023-02-18T00:01:32.958Z,11.10
2023-02-18T00:04:01.005Z,11.10
2023-02-18T00:06:34.037Z,11.10
2023-02-18T00:09:02.306Z,11.10
2023-02-18T00:11:32.647Z,11.10
2023-02-18T00:14:02.702Z,11.10
2023-02-18T00:16:30.956Z,11.10
2023-02-18T00:19:01.432Z,11.20
2023-02-18T00:21:28.977Z,11.10
2023-02-18T00:23:56.128Z,11.00
2023-02-18T00:26:23.336Z,11.10
2023-02-18T00:28:51.622Z,11.00
2023-02-18T00:31:23.420Z,11.00
2023-02-18T00:33:50.326Z,11.00
2023-02-18T00:36:19.886Z,10.90
2023-02-18T00:39:01.608Z,11.00
2023-02-18T00:41:29.325Z,11.00
2023-02-18T00:43:56.613Z,11.00
2023-02-18T00:46:25.386Z,11.00
2023-02-18T00:48:54.140Z,10.90
2023-02-18T00:51:22.653Z,10.90
2023-02-18T00:53:49.846Z,10.90
2023-02-18T00:56:16.926Z,10.90
2023-02-18T00:58:43.946Z,10.80
2023-02-18T01:01:12.118Z,10.80
2023-02-18T01:03:43.031Z,10.80
2023-02-18T01:06:11.450Z,10.70
2023-02-18T01:08:40.668Z,10.90
2023-02-18T01:11:10.575Z,10.80
2023-02-18T01:13:39.042Z,10.70
2023-02-18T01:16:08.514Z,10.70
2023-02-18T01:18:37.280Z,10.70
2023-02-18T01:21:08.441Z,10.70
2023-02-18T01:23:39.681Z,10.60
2023-02-18T01:26:08.608Z,10.60
2023-02-18T01:28:39.058Z,10.60
2023-02-18T01:31:10.391Z,10.60
2023-02-18T01:33:38.249Z,10.50
2023-02-18T01:36:06.888Z,10.50
2023-02-18T01:38:34.114Z,10.50
2023-02-18T01:41:01.058Z,10.50
2023-02-18T01:43:29.154Z,10.50
2023-02-18T01:46:01.025Z,10.40
2023-02-18T01:48:42.238Z,10.40
2023-02-18T01:51:22.350Z,10.40
2023-02-18T01:54:02.914Z,10.40
2023-02-18T01:56:42.675Z,10.40
2023-02-18T01:59:15.673Z,10.40
2023-02-18T02:01:45.544Z,10.50
2023-02-18T02:04:13.409Z,10.50
2023-02-18T02:06:41.592Z,10.40
2023-02-18T02:09:17.320Z,10.50
2023-02-18T02:12:15.105Z,10.40
2023-02-18T02:15:15.856Z,10.40
2023-02-18T02:18:07.130Z,10.40
2023-02-18T02:21:28.364Z,10.40
2023-02-18T02:24:43.396Z,10.50
2023-02-18T02:27:23.197Z,10.40
2023-02-18T02:30:05.004Z,10.40
2023-02-18T02:33:02.926Z,10.50
2023-02-18T02:35:33.609Z,10.50
2023-02-18T02:38:12.437Z,10.50
2023-02-18T02:41:09.656Z,10.40
2023-02-18T02:44:20.036Z,10.50
2023-02-18T02:46:52.845Z,10.60
2023-02-18T02:49:42.085Z,10.60
2023-02-18T02:52:33.654Z,10.60
2023-02-18T02:55:00.707Z,10.70
2023-02-18T02:57:27.422Z,10.60
2023-02-18T03:00:10.335Z,10.70
2023-02-18T03:02:56.495Z,10.60
2023-02-18T03:05:37.466Z,10.60
2023-02-18T03:08:32.794Z,10.60
2023-02-18T03:11:13.451Z,10.80
2023-02-18T03:14:12.801Z,10.70
2023-02-18T03:17:01.586Z,10.70
2023-02-18T03:19:31.678Z,10.70
2023-02-18T03:22:18.361Z,10.70
2023-02-18T03:24:54.550Z,10.80
2023-02-18T03:27:36.336Z,10.80
2023-02-18T03:30:17.764Z,10.80
2023-02-18T03:32:49.138Z,10.80
2023-02-18T03:35:18.349Z,10.80
2023-02-18T03:38:07.089Z,10.80
2023-02-18T03:40:34.113Z,10.90
2023-02-18T03:43:01.983Z,10.90
2023-02-18T03:45:28.869Z,10.90
2023-02-18T03:47:55.965Z,10.90
2023-02-18T03:50:24.328Z,10.90
2023-02-18T03:52:51.254Z,10.80
2023-02-18T03:55:18.362Z,10.90
2023-02-18T03:57:45.194Z,11.00
2023-02-18T04:00:12.887Z,11.10
2023-02-18T04:02:42.642Z,11.00
2023-02-18T04:05:09.750Z,11.10
2023-02-18T04:07:36.674Z,11.20
2023-02-18T04:10:06.021Z,11.20
2023-02-18T04:12:33.060Z,11.20
2023-02-18T04:15:00.035Z,11.20
2023-02-18T04:17:27.221Z,11.20
2023-02-18T04:19:54.082Z,11.20
2023-02-18T04:22:20.873Z,11.10
2023-02-18T04:24:47.627Z,11.20
2023-02-18T04:27:14.570Z,11.20
2023-02-18T04:29:41.640Z,11.20
2023-02-18T04:32:08.575Z,11.30
2023-02-18T04:34:35.603Z,11.20
2023-02-18T04:37:02.445Z,11.10
2023-02-18T04:39:29.240Z,11.30
2023-02-18T04:41:56.073Z,11.30
2023-02-18T04:44:22.896Z,11.20
2023-02-18T04:46:49.714Z,11.30
2023-02-18T04:49:16.566Z,11.30
2023-02-18T04:51:43.429Z,11.30
2023-02-18T04:54:10.213Z,11.30
2023-02-18T04:56:36.978Z,11.30
2023-02-18T04:59:03.776Z,11.20
2023-02-18T05:01:30.609Z,11.20
2023-02-18T05:03:57.512Z,11.20
2023-02-18T05:06:24.404Z,11.30
2023-02-18T05:08:51.279Z,11.10
2023-02-18T05:11:18.170Z,11.00
2023-02-18T05:13:45.038Z,11.10
2023-02-18T05:16:12.145Z,11.20
2023-02-18T05:18:39.650Z,11.30
2023-02-18T05:21:06.823Z,11.40
2023-02-18T05:23:34.084Z,11.40
2023-02-18T05:26:00.861Z,11.30
2023-02-18T05:28:27.745Z,11.40
2023-02-18T05:30:55.054Z,11.20
2023-02-18T05:33:21.875Z,11.40
2023-02-18T05:35:49.325Z,11.30
2023-02-18T05:38:16.359Z,11.30
2023-02-18T05:40:43.132Z,11.50
2023-02-18T05:43:09.933Z,11.50
2023-02-18T05:45:37.127Z,11.30
2023-02-18T05:48:04.325Z,11.50
2023-02-18T05:50:31.614Z,11.50
2023-02-18T05:52:58.392Z,11.50
2023-02-18T05:55:25.446Z,11.50
2023-02-18T05:57:52.526Z,11.40
2023-02-18T06:00:20.161Z,11.40
2023-02-18T06:02:47.049Z,11.40
2023-02-18T06:05:14.022Z,11.40
2023-02-18T06:07:40.890Z,11.40
2023-02-18T06:10:08.185Z,11.40
2023-02-18T06:12:35.016Z,11.50
2023-02-18T06:15:01.890Z,11.50
2023-02-18T06:17:28.814Z,11.50
2023-02-18T06:19:55.542Z,11.30
2023-02-18T06:22:22.378Z,11.40
2023-02-18T06:24:49.145Z,11.50
2023-02-18T06:27:16.132Z,11.50
2023-02-18T06:29:43.135Z,11.60
2023-02-18T06:32:10.120Z,11.50
2023-02-18T06:34:37.009Z,11.60
2023-02-18T06:37:03.876Z,11.50
2023-02-18T06:39:30.732Z,11.60
2023-02-18T06:41:57.961Z,11.40
2023-02-18T06:44:24.816Z,11.50
2023-02-18T06:46:51.626Z,11.40
2023-02-18T06:49:18.493Z,11.40
2023-02-18T06:51:45.268Z,11.50
2023-02-18T06:54:12.117Z,11.50
2023-02-18T06:56:38.928Z,11.30
2023-02-18T06:59:05.768Z,11.50
2023-02-18T07:01:32.587Z,11.60
2023-02-18T07:03:59.484Z,11.50
2023-02-18T07:06:26.402Z,11.40
2023-02-18T07:08:53.233Z,11.40
2023-02-18T07:11:19.978Z,11.50
2023-02-18T07:13:46.750Z,11.50
2023-02-18T07:16:13.614Z,11.40
2023-02-18T07:18:40.518Z,11.40
2023-02-18T07:21:07.447Z,11.30
2023-02-18T07:23:34.371Z,11.30
2023-02-18T07:26:13.899Z,11.30
2023-02-18T07:28:41.994Z,11.40
2023-02-18T07:31:09.601Z,11.50
2023-02-18T07:33:36.481Z,11.40
2023-02-18T07:36:04.581Z,11.60
2023-02-18T07:38:31.477Z,11.50
2023-02-18T07:40:59.904Z,11.40
2023-02-18T07:43:26.932Z,11.50
2023-02-18T07:45:54.834Z,11.50
2023-02-18T07:48:21.765Z,11.40
2023-02-18T07:50:48.720Z,11.40
2023-02-18T07:53:17.285Z,11.40
2023-02-18T07:55:49.876Z,11.30
2023-02-18T07:58:23.868Z,11.20
2023-02-18T08:00:53.372Z,11.30
2023-02-18T08:03:26.967Z,11.40
2023-02-18T08:05:54.836Z,11.30
2023-02-18T08:08:26.825Z,11.30
2023-02-18T08:10:59.695Z,11.40
2023-02-18T08:13:29.021Z,11.40
2023-02-18T08:15:57.537Z,11.30
2023-02-18T08:18:26.521Z,11.30
2023-02-18T08:20:54.090Z,11.30
2023-02-18T08:23:22.955Z,11.40
2023-02-18T08:25:52.637Z,11.20
2023-02-18T08:28:23.126Z,11.40
2023-02-18T08:30:53.088Z,11.30
2023-02-18T08:33:21.343Z,11.40
2023-02-18T08:35:51.570Z,11.40
2023-02-18T08:38:19.650Z,11.40
2023-02-18T08:40:47.123Z,11.50
2023-02-18T08:43:15.150Z,11.30
2023-02-18T08:45:43.828Z,11.10
2023-02-18T08:48:19.624Z,11.20
2023-02-18T08:50:48.482Z,11.20
2023-02-18T08:53:16.459Z,11.20
2023-02-18T08:55:44.209Z,11.10
2023-02-18T08:58:11.212Z,10.90
2023-02-18T09:00:40.247Z,10.90
2023-02-18T09:03:07.784Z,11.20
2023-02-18T09:05:34.709Z,11.20
2023-02-18T09:08:01.571Z,11.10
2023-02-18T09:10:28.481Z,11.00
2023-02-18T09:12:55.242Z,10.80
2023-02-18T09:15:22.021Z,10.90
2023-02-18T09:17:48.870Z,10.80
2023-02-18T09:20:15.798Z,10.80
2023-02-18T09:22:42.637Z,10.90
2023-02-18T09:25:09.803Z,10.90
2023-02-18T09:27:36.633Z,11.00
2023-02-18T09:30:03.947Z,11.00
2023-02-18T09:32:34.975Z,10.90
2023-02-18T09:35:04.626Z,10.90
2023-02-18T09:37:31.609Z,10.90
2023-02-18T09:39:59.896Z,11.20
2023-02-18T09:42:33.066Z,11.00
2023-02-18T09:45:06.954Z,11.00
2023-02-18T09:47:42.582Z,10.90
2023-02-18T09:50:26.954Z,10.90
2023-02-18T09:52:54.505Z,11.00
2023-02-18T09:55:28.894Z,11.20
2023-02-18T09:58:17.692Z,11.20
2023-02-18T10:00:54.197Z,11.20
2023-02-18T10:03:26.233Z,11.20
2023-02-18T10:06:32.701Z,11.10
2023-02-18T10:09:17.077Z,11.20
2023-02-18T10:11:51.313Z,11.30
2023-02-18T10:14:19.113Z,11.40
2023-02-18T10:16:48.652Z,11.40
2023-02-18T10:19:31.704Z,11.40
2023-02-18T10:22:02.254Z,11.40
2023-02-18T10:24:44.254Z,11.30
2023-02-18T10:27:27.149Z,11.40
2023-02-18T10:30:02.429Z,11.30
2023-02-18T10:32:43.653Z,11.30
2023-02-18T10:35:24.046Z,11.40
2023-02-18T10:38:24.294Z,11.40
2023-02-18T10:41:23.380Z,11.50
2023-02-18T10:44:03.425Z,11.50
2023-02-18T10:47:13.712Z,11.60
2023-02-18T10:50:08.223Z,11.60
2023-02-18T10:52:47.334Z,11.70
2023-02-18T10:55:18.742Z,11.60
2023-02-18T10:57:54.992Z,11.60
2023-02-18T11:00:26.602Z,11.70
2023-02-18T11:03:38.173Z,11.70
2023-02-18T11:06:07.281Z,11.70
2023-02-18T11:08:43.688Z,11.70
2023-02-18T11:11:22.845Z,11.80
2023-02-18T11:13:55.995Z,11.70
2023-02-18T11:16:37.656Z,11.80
2023-02-18T11:19:04.563Z,11.80
2023-02-18T11:21:38.201Z,11.90
2023-02-18T11:24:16.654Z,11.90
2023-02-18T11:26:47.005Z,11.80
2023-02-18T11:29:31.494Z,11.90
2023-02-18T11:31:58.451Z,11.90
2023-02-18T11:34:33.018Z,11.80
2023-02-18T11:37:21.486Z,11.90
2023-02-18T11:39:54.531Z,11.90
2023-02-18T11:42:26.559Z,11.80
2023-02-18T11:45:00.267Z,11.90
2023-02-18T11:47:37.031Z,12.00
2023-02-18T11:50:09.767Z,12.00
2023-02-18T11:52:44.201Z,11.90
2023-02-18T11:55:27.174Z,11.90
2023-02-18T11:58:02.692Z,11.90
2023-02-18T12:00:48.649Z,12.00
2023-02-18T12:03:41.211Z,12.10
2023-02-18T12:06:25.230Z,12.30
2023-02-18T12:09:20.749Z,12.20
2023-02-18T12:12:01.488Z,12.20
2023-02-18T12:14:28.503Z,12.10
2023-02-18T12:17:39.894Z,12.10
2023-02-18T12:20:49.402Z,12.10
2023-02-18T12:23:26.517Z,11.90
2023-02-18T12:26:25.339Z,12.00
2023-02-18T12:29:06.764Z,12.10
2023-02-18T12:31:54.115Z,12.10
2023-02-18T12:34:44.694Z,12.30
2023-02-18T12:37:20.965Z,12.40
2023-02-18T12:40:03.217Z,12.40
2023-02-18T12:43:30.602Z,12.30
2023-02-18T12:46:24.326Z,12.60
2023-02-18T12:49:03.008Z,12.70
2023-02-18T12:52:23.586Z,12.70
2023-02-18T12:55:17.623Z,12.80
2023-02-18T12:58:14.244Z,12.90
2023-02-18T13:00:49.865Z,12.70
2023-02-18T13:03:54.152Z,12.60
2023-02-18T13:06:50.357Z,12.60
2023-02-18T13:10:01.323Z,12.60
2023-02-18T13:12:50.930Z,12.60
2023-02-18T13:15:43.036Z,12.60
2023-02-18T13:18:22.869Z,12.70
2023-02-18T13:20:59.659Z,12.60
2023-02-18T13:23:35.690Z,12.60
2023-02-18T13:26:06.709Z,12.60
2023-02-18T13:28:49.863Z,12.70
2023-02-18T13:32:07.873Z,12.80
2023-02-18T13:34:52.491Z,12.80
2023-02-18T13:37:37.950Z,12.90
2023-02-18T13:40:17.002Z,12.90
2023-02-18T13:42:43.978Z,12.80
2023-02-18T13:45:33.265Z,12.80
2023-02-18T13:48:01.125Z,12.80
2023-02-18T13:50:31.610Z,12.90
2023-02-18T13:53:07.434Z,12.90
2023-02-18T13:55:50.237Z,12.90
2023-02-18T13:58:24.318Z,12.90
2023-02-18T14:01:05.102Z,12.90
2023-02-18T14:03:42.293Z,12.80
2023-02-18T14:06:33.198Z,12.90
2023-02-18T14:09:11.883Z,12.90
2023-02-18T14:11:53.466Z,12.90
2023-02-18T14:14:26.201Z,12.90
2023-02-18T14:17:20.685Z,12.90
2023-02-18T14:20:19.412Z,13.00
2023-02-18T14:22:52.155Z,13.00
2023-02-18T14:25:21.806Z,13.10
2023-02-18T14:27:54.520Z,13.00
2023-02-18T14:30:38.182Z,13.10
2023-02-18T14:33:05.602Z,13.10
2023-02-18T14:36:10.039Z,13.10
2023-02-18T14:39:00.369Z,13.10
2023-02-18T14:41:39.848Z,13.00
2023-02-18T14:44:28.324Z,13.00
2023-02-18T14:47:29.518Z,13.00
2023-02-18T14:50:03.501Z,13.00
2023-02-18T14:52:37.186Z,13.00
2023-02-18T14:55:08.074Z,13.00
2023-02-18T14:57:48.228Z,13.00
2023-02-18T15:00:32.252Z,13.00
2023-02-18T15:03:01.682Z,13.00
2023-02-18T15:05:32.852Z,13.00
2023-02-18T15:08:04.084Z,13.00
2023-02-18T15:10:48.586Z,13.00
2023-02-18T15:13:21.502Z,13.00
2023-02-18T15:15:53.551Z,12.90
2023-02-18T15:18:51.445Z,12.90
2023-02-18T15:21:29.039Z,12.90
2023-02-18T15:24:05.618Z,12.90
2023-02-18T15:26:32.846Z,12.90
2023-02-18T15:29:05.908Z,12.90
2023-02-18T15:31:38.975Z,12.90
2023-02-18T15:34:29.422Z,12.90
2023-02-18T15:36:58.282Z,12.90
2023-02-18T15:39:26.060Z,12.80
2023-02-18T15:42:10.809Z,12.80
2023-02-18T15:44:38.592Z,12.70
2023-02-18T15:47:10.031Z,12.70
2023-02-18T15:49:40.226Z,12.70
2023-02-18T15:52:08.921Z,12.70
2023-02-18T15:54:41.245Z,12.70
2023-02-18T15:57:16.034Z,12.70
2023-02-18T15:59:55.184Z,12.70
2023-02-18T16:02:25.086Z,12.60
2023-02-18T16:05:05.095Z,12.60
2023-02-18T16:07:50.979Z,12.60
2023-02-18T16:10:37.662Z,12.50
2023-02-18T16:13:06.052Z,12.50
2023-02-18T16:15:42.941Z,12.50
2023-02-18T16:18:38.009Z,12.50
2023-02-18T16:21:25.057Z,12.40
2023-02-18T16:23:59.329Z,12.40
2023-02-18T16:26:43.524Z,12.40
2023-02-18T16:29:22.069Z,12.30
2023-02-18T16:31:49.088Z,12.30
2023-02-18T16:34:17.884Z,12.30
2023-02-18T16:37:04.132Z,12.30
2023-02-18T16:39:35.002Z,12.30
2023-02-18T16:42:02.262Z,12.30
2023-02-18T16:44:29.198Z,12.30
2023-02-18T16:46:57.296Z,12.30
2023-02-18T16:49:24.271Z,12.20
2023-02-18T16:51:51.101Z,12.20
2023-02-18T16:54:18.429Z,12.20
2023-02-18T16:56:45.253Z,12.20
2023-02-18T16:59:12.113Z,12.20
2023-02-18T17:01:44.850Z,12.10
2023-02-18T17:04:16.429Z,12.00
2023-02-18T17:06:45.170Z,12.00
2023-02-18T17:09:20.356Z,12.10
2023-02-18T17:11:51.938Z,12.00
2023-02-18T17:14:21.871Z,12.00
2023-02-18T17:16:52.749Z,11.90
2023-02-18T17:19:19.835Z,12.00
2023-02-18T17:21:48.855Z,12.00
2023-02-18T17:24:18.656Z,11.90
2023-02-18T17:26:45.788Z,11.80
2023-02-18T17:29:13.727Z,11.80
2023-02-18T17:31:46.828Z,11.80
2023-02-18T17:34:27.644Z,11.80
2023-02-18T17:36:54.917Z,11.70
2023-02-18T17:39:21.888Z,11.80
2023-02-18T17:41:48.868Z,11.70
2023-02-18T17:44:21.661Z,11.70
2023-02-18T17:46:49.914Z,11.70
2023-02-18T17:49:17.199Z,11.70
2023-02-18T17:51:45.655Z,11.70
2023-02-18T17:54:19.692Z,11.70
2023-02-18T17:56:47.035Z,11.70
2023-02-18T17:59:14.410Z,11.80
2023-02-18T18:01:42.339Z,11.70
2023-02-18T18:04:16.531Z,11.70
2023-02-18T18:06:45.665Z,11.70
2023-02-18T18:09:12.640Z,11.60
2023-02-18T18:11:39.594Z,11.50
2023-02-18T18:14:06.386Z,11.50
2023-02-18T18:16:34.276Z,11.40
2023-02-18T18:19:01.075Z,11.40
2023-02-18T18:21:35.750Z,11.40
2023-02-18T18:24:03.812Z,11.30
2023-02-18T18:26:31.024Z,11.30
2023-02-18T18:28:57.941Z,11.30
2023-02-18T18:31:25.042Z,11.30
2023-02-18T18:33:53.112Z,11.40
2023-02-18T18:36:24.024Z,11.40
2023-02-18T18:38:51.315Z,11.40
2023-02-18T18:41:21.890Z,11.30
2023-02-18T18:43:49.656Z,11.40
2023-02-18T18:46:17.492Z,11.40
2023-02-18T18:48:44.379Z,11.40
2023-02-18T18:51:31.136Z,11.40
2023-02-18T18:53:58.811Z,11.40
2023-02-18T18:56:25.665Z,11.40
2023-02-18T18:58:52.566Z,11.40
2023-02-18T19:01:27.476Z,11.40
2023-02-18T19:03:54.908Z,11.40
2023-02-18T19:06:24.442Z,11.40
2023-02-18T19:08:51.365Z,11.40
2023-02-18T19:11:18.327Z,11.40
2023-02-18T19:13:45.667Z,11.40
2023-02-18T19:16:19.779Z,11.30
2023-02-18T19:18:47.413Z,11.40
2023-02-18T19:21:15.144Z,11.40
2023-02-18T19:23:41.944Z,11.40
2023-02-18T19:26:08.930Z,11.40
2023-02-18T19:28:35.954Z,11.40
2023-02-18T19:31:07.429Z,11.40
2023-02-18T19:33:34.500Z,11.30
2023-02-18T19:36:09.998Z,11.30
2023-02-18T19:38:37.622Z,11.30
2023-02-18T19:41:14.299Z,11.40
2023-02-18T19:43:43.891Z,11.30
2023-02-18T19:46:16.975Z,11.30
2023-02-18T19:48:49.239Z,11.30
2023-02-18T19:51:16.650Z,11.30
2023-02-18T19:53:43.668Z,11.30
2023-02-18T19:56:10.490Z,11.30
2023-02-18T19:58:39.961Z,11.30
2023-02-18T20:01:17.612Z,11.30
2023-02-18T20:03:44.808Z,11.20
2023-02-18T20:06:17.549Z,11.20
2023-02-18T20:08:45.764Z,11.20
2023-02-18T20:11:12.937Z,11.30
2023-02-18T20:13:39.820Z,11.30
2023-02-18T20:16:08.630Z,11.20
2023-02-18T20:18:36.214Z,11.20
2023-02-18T20:21:03.193Z,11.30
2023-02-18T20:23:29.997Z,11.30
2023-02-18T20:25:57.302Z,11.30
2023-02-18T20:28:24.103Z,11.30
2023-02-18T20:30:51.012Z,11.20
2023-02-18T20:33:17.956Z,11.20
2023-02-18T20:35:44.732Z,11.20
2023-02-18T20:38:11.506Z,11.10
2023-02-18T20:40:38.332Z,11.10
2023-02-18T20:43:05.101Z,11.10
2023-02-18T20:45:32.704Z,11.10
2023-02-18T20:47:59.496Z,11.10
2023-02-18T20:50:26.319Z,11.10
2023-02-18T20:52:53.305Z,11.10
2023-02-18T20:55:20.278Z,11.20
2023-02-18T20:57:47.109Z,11.30
2023-02-18T21:00:14.861Z,11.30
2023-02-18T21:02:41.725Z,11.20
2023-02-18T21:05:09.049Z,11.30
2023-02-18T21:07:35.862Z,11.30
2023-02-18T21:10:04.041Z,11.20
2023-02-18T21:12:31.090Z,11.20
2023-02-18T21:14:57.880Z,11.30
2023-02-18T21:17:24.741Z,11.30
2023-02-18T21:19:51.484Z,11.20
2023-02-18T21:22:18.367Z,11.30
2023-02-18T21:24:45.177Z,11.30
2023-02-18T21:27:11.908Z,11.30
2023-02-18T21:29:39.258Z,11.30
2023-02-18T21:32:07.537Z,11.30
2023-02-18T21:34:34.526Z,11.40
2023-02-18T21:37:01.312Z,11.30
2023-02-18T21:39:28.114Z,11.20
2023-02-18T21:41:56.985Z,11.30
2023-02-18T21:44:32.941Z,11.30
2023-02-18T21:47:07.249Z,11.30
2023-02-18T21:49:34.064Z,11.30
2023-02-18T21:52:07.981Z,11.30
2023-02-18T21:54:39.089Z,11.30
2023-02-18T21:57:18.566Z,11.30
2023-02-18T21:59:45.713Z,11.20
2023-02-18T22:02:18.728Z,11.20
2023-02-18T22:04:46.999Z,11.30
2023-02-18T22:07:15.718Z,11.30
2023-02-18T22:09:42.898Z,11.40
2023-02-18T22:12:11.730Z,11.40
2023-02-18T22:14:39.687Z,11.40
2023-02-18T22:17:06.713Z,11.50
2023-02-18T22:19:33.498Z,11.50
2023-02-18T22:22:02.457Z,11.30
2023-02-18T22:24:29.522Z,11.40
2023-02-18T22:26:58.165Z,11.30
2023-02-18T22:29:24.924Z,11.30
2023-02-18T22:31:53.328Z,11.30
2023-02-18T22:34:21.854Z,11.20
2023-02-18T22:36:49.353Z,11.30
2023-02-18T22:39:16.868Z,11.30
2023-02-18T22:41:43.797Z,11.30
2023-02-18T22:44:16.536Z,11.30
2023-02-18T22:46:44.298Z,11.40
2023-02-18T22:49:11.901Z,11.30
2023-02-18T22:51:42.999Z,11.20
2023-02-18T22:54:17.574Z,11.30
2023-02-18T22:56:46.893Z,11.40
2023-02-18T22:59:17.372Z,11.30
2023-02-18T23:01:52.748Z,11.30
2023-02-18T23:04:20.887Z,11.30
2023-02-18T23:06:49.107Z,11.30
2023-02-18T23:09:25.355Z,11.30
2023-02-18T23:11:58.463Z,11.30
2023-02-18T23:14:28.057Z,11.30
2023-02-18T23:17:17.556Z,11.30
2023-02-18T23:19:53.980Z,11.20
2023-02-18T23:22:33.361Z,11.20
2023-02-18T23:25:02.051Z,11.10
2023-02-18T23:27:29.518Z,11.20
2023-02-18T23:29:56.756Z,11.20
2023-02-18T23:32:23.974Z,11.20
2023-02-18T23:34:51.831Z,11.30
2023-02-18T23:37:38.710Z,11.40
2023-02-18T23:40:06.602Z,11.30
2023-02-18T23:42:33.422Z,11.20
2023-02-18T23:45:00.223Z,11.30
2023-02-18T23:47:27.107Z,11.10
2023-02-18T23:49:53.892Z,11.20
2023-02-18T23:52:20.682Z,11.10
2023-02-18T23:54:47.484Z,11.10
2023-02-18T23:57:14.209Z,11.00
2023-02-18T23:59:41.094Z,11.00
